Terminal Aerodrome Forecast
Issued by NWS

Home | Current Version | Previous Version | Text Only | Print | Product List | Glossary Off
Versions: 1 2 3 4 5 6 7 8 9 10 11 12 13 14 15 16 17

874
FTUS43 KGRB 211127
TAFAUW
TAF
KAUW 211127Z 2112/2212 00000KT P6SM VCTS SCT025 BKN120CB
      TEMPO 2112/2116 4SM -SHRA BR BKN025
     FM211600 VRB03KT P6SM VCSH SCT050 OVC090
     FM220000 VRB03KT 6SM -SHRA VCTS OVC040CB
     FM220200 VRB03KT 5SM SHRA VCTS OVC030CB
     FM220700 VRB03KT P6SM VCSH OVC020
     FM220900 32005KT P6SM OVC008=

USA.gov is the U.S. government's official web portal to all federal, state and local government web resources and services.